createdAt,value
2017-03-27T00:00:56.901Z,25.3
2017-03-27T00:01:57.023Z,25.3
2017-03-27T00:02:57.140Z,25.3
2017-03-27T00:03:58.404Z,25.3
2017-03-27T00:04:58.305Z,25.3
2017-03-27T00:05:58.237Z,25.3
2017-03-27T00:06:58.397Z,25.3
2017-03-27T00:07:58.521Z,25.3
2017-03-27T00:08:58.484Z,25.3
2017-03-27T00:09:58.740Z,25.3
2017-03-27T00:10:57.590Z,25.3
2017-03-27T00:11:57.562Z,25.3
2017-03-27T00:12:57.639Z,25.3
2017-03-27T00:13:57.711Z,25.3
2017-03-27T00:14:58.867Z,25.3
2017-03-27T00:15:58.138Z,25.3
2017-03-27T00:16:58.036Z,25.3
2017-03-27T00:17:59.071Z,25.3
2017-03-27T00:18:58.129Z,25.3
2017-03-27T00:19:58.084Z,25.3
2017-03-27T00:20:59.218Z,25.3
2017-03-27T00:21:59.381Z,25.3
2017-03-27T00:22:58.239Z,25.3
2017-03-27T00:23:59.370Z,25.3
2017-03-27T00:24:58.446Z,25.3
2017-03-27T00:25:58.530Z,25.3
2017-03-27T00:26:59.588Z,25.3
2017-03-27T00:27:58.642Z,25.3
2017-03-27T00:28:59.586Z,25.3
2017-03-27T00:29:59.737Z,25.3
2017-03-27T00:30:58.644Z,25.3
2017-03-27T00:31:59.811Z,25.3
2017-03-27T00:32:59.864Z,25.3
2017-03-27T00:33:59.135Z,25.3
2017-03-27T00:34:58.979Z,25.3
2017-03-27T00:36:00.070Z,25.4
2017-03-27T00:37:00.086Z,25.4
2017-03-27T00:37:59.162Z,25.4
2017-03-27T00:39:00.299Z,25.4
2017-03-27T00:40:00.493Z,25.4
2017-03-27T00:41:00.431Z,25.4
2017-03-27T00:41:59.279Z,25.4
2017-03-27T00:42:59.435Z,25.4
2017-03-27T00:43:59.408Z,25.4
2017-03-27T00:44:59.558Z,25.4
2017-03-27T00:45:59.618Z,25.4
2017-03-27T00:47:00.624Z,25.4
2017-03-27T00:48:00.733Z,25.4
2017-03-27T00:49:00.871Z,25.4
2017-03-27T00:49:59.898Z,25.4
2017-03-27T00:50:59.989Z,25.4
2017-03-27T00:52:01.160Z,25.4
2017-03-27T00:53:01.030Z,25.4
2017-03-27T00:54:00.123Z,25.4
2017-03-27T00:55:01.213Z,25.4
2017-03-27T00:56:00.251Z,25.4
2017-03-27T00:57:01.320Z,25.4
2017-03-27T00:58:01.503Z,25.4
2017-03-27T00:59:00.410Z,25.4
2017-03-27T01:00:00.342Z,25.4
2017-03-27T01:01:00.392Z,25.4
2017-03-27T01:02:01.549Z,25.4
2017-03-27T01:03:01.511Z,25.4
2017-03-27T01:04:01.747Z,25.4
2017-03-27T01:05:00.638Z,25.4
2017-03-27T01:06:00.684Z,25.3
2017-03-27T01:07:01.721Z,25.4
2017-03-27T01:08:00.871Z,25.4
2017-03-27T01:09:01.907Z,25.4
2017-03-27T01:10:02.097Z,25.4
2017-03-27T01:11:00.889Z,25.4
2017-03-27T01:12:02.043Z,25.4
2017-03-27T01:13:00.912Z,25.4
2017-03-27T01:14:02.070Z,25.4
2017-03-27T01:15:02.208Z,25.4
2017-03-27T01:16:01.456Z,25.4
2017-03-27T01:17:02.360Z,25.4
2017-03-27T01:18:02.385Z,25.4
2017-03-27T01:19:02.404Z,25.4
2017-03-27T01:20:02.475Z,25.4
2017-03-27T01:21:01.513Z,25.4
2017-03-27T01:22:01.705Z,25.4
2017-03-27T01:23:01.541Z,25.4
2017-03-27T01:24:01.628Z,25.4
2017-03-27T01:25:01.605Z,25.4
2017-03-27T01:26:01.615Z,25.4
2017-03-27T01:27:01.778Z,25.4
2017-03-27T01:28:01.966Z,25.4
2017-03-27T01:29:01.923Z,25.4
2017-03-27T01:30:01.981Z,25.4
2017-03-27T01:31:01.907Z,25.4
2017-03-27T01:32:02.010Z,25.4
2017-03-27T01:33:03.098Z,25.4
2017-03-27T01:34:03.326Z,25.4
2017-03-27T01:35:02.112Z,25.4
2017-03-27T01:36:02.169Z,25.4
2017-03-27T01:37:03.282Z,25.4
2017-03-27T01:38:02.279Z,25.4
2017-03-27T01:39:03.398Z,25.4
2017-03-27T01:40:03.797Z,25.4
2017-03-27T01:41:03.620Z,25.4
2017-03-27T01:42:03.576Z,25.4
2017-03-27T01:43:03.711Z,25.4
2017-03-27T01:44:02.605Z,25.4
2017-03-27T01:45:03.665Z,25.4
2017-03-27T01:46:02.886Z,25.4
2017-03-27T01:47:02.714Z,25.4
2017-03-27T01:48:02.767Z,25.4
2017-03-27T01:49:02.919Z,25.4
2017-03-27T01:50:03.942Z,25.4
2017-03-27T01:51:04.079Z,25.4
2017-03-27T01:52:03.204Z,25.4
2017-03-27T01:53:04.129Z,25.4
2017-03-27T01:54:03.177Z,25.4
2017-03-27T01:55:03.279Z,25.4
2017-03-27T01:56:04.360Z,25.4
2017-03-27T01:57:03.353Z,25.4
2017-03-27T01:58:03.447Z,25.4
2017-03-27T01:59:04.520Z,25.4
2017-03-27T02:00:03.390Z,25.4
2017-03-27T02:01:03.412Z,25.4
2017-03-27T02:02:04.621Z,25.4
2017-03-27T02:03:03.501Z,25.4
2017-03-27T02:04:04.777Z,25.4
2017-03-27T02:05:04.745Z,25.4
2017-03-27T02:06:04.750Z,25.4
2017-03-27T02:07:04.774Z,25.4
2017-03-27T02:08:04.911Z,25.4
2017-03-27T02:09:04.846Z,25.4
2017-03-27T02:10:05.082Z,25.4
2017-03-27T02:11:03.950Z,25.4
2017-03-27T02:12:04.038Z,25.4
2017-03-27T02:13:05.121Z,25.4
2017-03-27T02:14:05.128Z,25.4
2017-03-27T02:15:05.097Z,25.4
2017-03-27T02:16:04.253Z,25.4
2017-03-27T02:17:04.138Z,25.4
2017-03-27T02:18:04.294Z,25.4
2017-03-27T02:19:05.281Z,25.4
2017-03-27T02:20:04.327Z,25.4
2017-03-27T02:21:05.340Z,25.4
2017-03-27T02:22:04.489Z,25.4
2017-03-27T02:23:04.466Z,25.5
2017-03-27T02:24:04.482Z,25.5
2017-03-27T02:25:04.494Z,25.5
2017-03-27T02:26:04.418Z,25.4
2017-03-27T02:27:04.446Z,25.4
2017-03-27T02:28:05.775Z,25.4
2017-03-27T02:29:04.643Z,25.4
2017-03-27T02:30:05.635Z,25.5
2017-03-27T02:31:05.664Z,25.5
2017-03-27T02:32:05.778Z,25.5
2017-03-27T02:33:05.861Z,25.4
2017-03-27T02:34:06.079Z,25.4
2017-03-27T02:35:05.983Z,25.4
2017-03-27T02:36:05.983Z,25.4
2017-03-27T02:37:04.949Z,25.4
2017-03-27T02:38:06.072Z,25.4
2017-03-27T02:39:05.072Z,25.4
2017-03-27T02:40:05.292Z,25.4
2017-03-27T02:41:05.152Z,25.4
2017-03-27T02:42:06.289Z,25.5
2017-03-27T02:43:05.387Z,25.4
2017-03-27T02:44:05.341Z,25.5
2017-03-27T02:45:06.539Z,25.5
2017-03-27T02:46:06.901Z,25.4
2017-03-27T02:47:05.553Z,25.5
2017-03-27T02:48:05.665Z,25.5
2017-03-27T02:49:05.692Z,25.5
2017-03-27T02:50:06.857Z,25.5
2017-03-27T02:51:05.731Z,25.5
2017-03-27T02:52:06.012Z,25.4
2017-03-27T02:53:06.912Z,25.5
2017-03-27T02:54:07.079Z,25.5
2017-03-27T02:55:06.988Z,25.4
2017-03-27T02:56:07.088Z,25.4
2017-03-27T02:57:07.164Z,25.4
2017-03-27T02:58:06.210Z,25.4
2017-03-27T02:59:07.249Z,25.4
2017-03-27T03:00:06.146Z,25.4
2017-03-27T03:01:06.272Z,25.4
2017-03-27T03:02:06.227Z,25.5
2017-03-27T03:03:06.327Z,25.5
2017-03-27T03:04:07.739Z,25.5
2017-03-27T03:05:06.528Z,25.5
2017-03-27T03:06:07.724Z,25.5
2017-03-27T03:07:06.692Z,25.5
2017-03-27T03:08:06.790Z,25.5
2017-03-27T03:09:06.787Z,25.4
2017-03-27T03:10:08.083Z,25.5
2017-03-27T03:11:06.949Z,25.5
2017-03-27T03:12:06.909Z,25.5
2017-03-27T03:13:08.068Z,25.5
2017-03-27T03:14:06.974Z,25.5
2017-03-27T03:15:07.011Z,25.5
2017-03-27T03:16:08.350Z,25.5
2017-03-27T03:17:08.174Z,25.5
2017-03-27T03:18:08.241Z,25.5
2017-03-27T03:19:08.412Z,25.5
2017-03-27T03:20:08.363Z,25.5
2017-03-27T03:21:08.490Z,25.5
2017-03-27T03:22:07.682Z,25.5
2017-03-27T03:23:08.673Z,25.5
2017-03-27T03:24:08.630Z,25.5
2017-03-27T03:25:08.653Z,25.5
2017-03-27T03:26:08.761Z,25.5
2017-03-27T03:27:08.780Z,25.5
2017-03-27T03:28:09.084Z,25.5
2017-03-27T03:29:07.839Z,25.5
2017-03-27T03:30:07.888Z,25.5
2017-03-27T03:31:09.114Z,25.5
2017-03-27T03:32:09.111Z,25.5
2017-03-27T03:33:09.143Z,25.5
2017-03-27T03:34:09.305Z,25.5
2017-03-27T03:35:09.181Z,25.5
2017-03-27T03:36:09.320Z,25.5
2017-03-27T03:37:08.360Z,25.8
2017-03-27T03:38:08.379Z,26
2017-03-27T03:39:08.458Z,26.1
2017-03-27T03:40:08.551Z,26.3
2017-03-27T03:41:09.509Z,26.7
2017-03-27T03:42:09.541Z,27
2017-03-27T03:43:08.593Z,27.4
2017-03-27T03:44:08.760Z,27.7
2017-03-27T03:45:09.810Z,28.1
2017-03-27T03:46:09.870Z,28.4
2017-03-27T03:47:10.014Z,28.8
2017-03-27T03:48:10.038Z,29
2017-03-27T03:49:08.999Z,29.1
2017-03-27T03:50:09.036Z,29.3
2017-03-27T03:51:09.098Z,29.4
2017-03-27T03:52:10.129Z,29.5
2017-03-27T03:53:09.141Z,29.6
2017-03-27T03:54:09.313Z,29.7
2017-03-27T03:55:09.321Z,29.8
2017-03-27T03:56:09.351Z,29.9
2017-03-27T03:57:10.428Z,29.9
2017-03-27T03:58:09.401Z,30
2017-03-27T03:59:10.428Z,30
2017-03-27T04:00:10.518Z,30.1
2017-03-27T04:01:10.560Z,30.1
2017-03-27T04:02:10.551Z,30.2
2017-03-27T04:03:09.475Z,30.2
2017-03-27T04:04:09.515Z,30.2
2017-03-27T04:05:09.594Z,30.2
2017-03-27T04:06:09.630Z,30.2
2017-03-27T04:07:09.759Z,30.2
2017-03-27T04:08:10.895Z,30.2
2017-03-27T04:09:09.906Z,30.2
2017-03-27T04:10:10.925Z,30.2
2017-03-27T04:11:09.919Z,30.2
2017-03-27T04:12:09.953Z,30.2
2017-03-27T04:13:11.211Z,30.1
2017-03-27T04:14:10.232Z,30.1
2017-03-27T04:15:11.273Z,30.1
2017-03-27T04:16:10.231Z,30.1
2017-03-27T04:17:11.458Z,30.1
2017-03-27T04:18:10.428Z,30.1
2017-03-27T04:19:10.484Z,30
2017-03-27T04:20:11.692Z,30
2017-03-27T04:21:11.602Z,30
2017-03-27T04:22:11.904Z,30
2017-03-27T04:23:11.779Z,30
2017-03-27T04:24:10.790Z,29.9
2017-03-27T04:25:12.029Z,29.9
2017-03-27T04:26:11.942Z,29.9
2017-03-27T04:27:10.941Z,29.9
2017-03-27T04:28:12.316Z,29.8
2017-03-27T04:29:12.224Z,29.8
2017-03-27T04:30:11.219Z,29.8
2017-03-27T04:31:12.285Z,29.8
2017-03-27T04:32:11.246Z,29.8
2017-03-27T04:33:12.444Z,29.7
2017-03-27T04:34:12.550Z,29.7
2017-03-27T04:35:11.376Z,29.7
2017-03-27T04:36:11.428Z,29.7
2017-03-27T04:37:11.519Z,29.7
2017-03-27T04:38:12.695Z,29.6
2017-03-27T04:39:12.796Z,29.6
2017-03-27T04:40:11.654Z,29.6
2017-03-27T04:41:12.761Z,29.6
2017-03-27T04:42:11.723Z,29.6
2017-03-27T04:43:12.949Z,29.5
2017-03-27T04:44:11.873Z,29.5
2017-03-27T04:45:12.055Z,29.5
2017-03-27T04:46:11.982Z,29.5
2017-03-27T04:47:13.067Z,29.4
2017-03-27T04:48:13.220Z,29.4
2017-03-27T04:49:13.246Z,29.4
2017-03-27T04:50:12.216Z,29.4
2017-03-27T04:51:12.269Z,29.4
2017-03-27T04:52:13.406Z,29.3
2017-03-27T04:53:12.493Z,29.3
2017-03-27T04:54:12.528Z,29.3
2017-03-27T04:55:13.533Z,29.3
2017-03-27T04:56:13.670Z,29.2
2017-03-27T04:57:14.031Z,29.2
2017-03-27T04:58:13.807Z,29.2
2017-03-27T04:59:12.839Z,29.2
2017-03-27T05:00:13.852Z,29.1
2017-03-27T05:01:13.854Z,29.1
2017-03-27T05:02:12.865Z,29.1
2017-03-27T05:03:14.186Z,29
2017-03-27T05:04:13.939Z,29
2017-03-27T05:05:14.049Z,29
2017-03-27T05:06:14.016Z,29
2017-03-27T05:07:14.120Z,29
2017-03-27T05:08:13.088Z,28.9
2017-03-27T05:09:14.377Z,28.9
2017-03-27T05:10:14.269Z,28.9
2017-03-27T05:11:14.324Z,28.8
2017-03-27T05:12:13.307Z,28.8
2017-03-27T05:13:13.324Z,28.8
2017-03-27T05:14:14.441Z,28.8
2017-03-27T05:15:14.870Z,28.8
2017-03-27T05:16:14.541Z,28.7
2017-03-27T05:17:14.600Z,28.7
2017-03-27T05:18:13.671Z,28.7
2017-03-27T05:19:13.644Z,28.7
2017-03-27T05:20:14.777Z,28.7
2017-03-27T05:21:15.045Z,28.7
2017-03-27T05:22:15.005Z,28.6
2017-03-27T05:23:15.019Z,28.6
2017-03-27T05:24:15.050Z,28.6
2017-03-27T05:25:13.977Z,28.6
2017-03-27T05:26:14.097Z,28.6
2017-03-27T05:27:14.447Z,28.6
2017-03-27T05:28:14.323Z,28.5
2017-03-27T05:29:15.318Z,28.5
2017-03-27T05:30:14.328Z,28.5
2017-03-27T05:31:14.428Z,28.5
2017-03-27T05:32:15.467Z,28.5
2017-03-27T05:33:14.618Z,28.5
2017-03-27T05:34:15.599Z,28.4
2017-03-27T05:35:15.598Z,28.4
2017-03-27T05:36:15.717Z,28.4
2017-03-27T05:37:15.756Z,28.4
2017-03-27T05:38:15.760Z,28.4
2017-03-27T05:39:15.993Z,28.4
2017-03-27T05:40:15.779Z,28.3
2017-03-27T05:41:15.925Z,28.3
2017-03-27T05:42:16.024Z,28.3
2017-03-27T05:43:16.031Z,28.3
2017-03-27T05:44:16.163Z,28.3
2017-03-27T05:45:15.307Z,28.3
2017-03-27T05:46:16.190Z,28.2
2017-03-27T05:47:16.262Z,28.2
2017-03-27T05:48:15.159Z,28.2
2017-03-27T05:49:16.397Z,28.2
2017-03-27T05:50:16.459Z,28.2
2017-03-27T05:51:16.797Z,28.2
2017-03-27T05:52:16.489Z,28.1
2017-03-27T05:53:15.479Z,28.1
2017-03-27T05:54:16.669Z,28.1
2017-03-27T05:55:16.590Z,28.1
2017-03-27T05:56:15.573Z,28.1
2017-03-27T05:57:15.874Z,28.1
2017-03-27T05:58:16.768Z,28.1
2017-03-27T05:59:15.702Z,28
2017-03-27T06:00:15.826Z,28
2017-03-27T06:01:17.629Z,28
2017-03-27T06:02:16.368Z,28
2017-03-27T06:03:16.685Z,28
2017-03-27T06:04:20.612Z,27.9
2017-03-27T06:05:17.014Z,27.9
2017-03-27T06:06:17.107Z,27.9
2017-03-27T06:07:17.156Z,27.8
2017-03-27T06:08:16.151Z,27.8
2017-03-27T06:09:16.422Z,27.8
2017-03-27T06:10:17.314Z,27.8
2017-03-27T06:11:16.269Z,27.8
2017-03-27T06:12:18.032Z,27.7
2017-03-27T06:13:18.012Z,27.7
2017-03-27T06:14:16.330Z,27.7
2017-03-27T06:15:16.703Z,27.7
2017-03-27T06:16:17.519Z,27.7
2017-03-27T06:17:16.466Z,27.6
2017-03-27T06:18:17.581Z,27.6
2017-03-27T06:19:17.723Z,27.6
2017-03-27T06:20:16.659Z,27.6
2017-03-27T06:21:16.896Z,27.5
2017-03-27T06:22:17.932Z,27.5
2017-03-27T06:23:18.016Z,27.5
2017-03-27T06:24:18.045Z,27.5
2017-03-27T06:25:18.060Z,27.4
2017-03-27T06:26:17.193Z,27.4
2017-03-27T06:27:18.418Z,27.4
2017-03-27T06:28:17.267Z,27.3
2017-03-27T06:29:18.031Z,27.3
2017-03-27T06:30:17.410Z,27.3
2017-03-27T06:31:17.354Z,27.3
2017-03-27T06:32:18.105Z,27.2
2017-03-27T06:33:18.764Z,27.2
2017-03-27T06:34:17.717Z,27.1
2017-03-27T06:35:17.658Z,27.1
2017-03-27T06:36:17.777Z,27.1
2017-03-27T06:37:17.819Z,27
2017-03-27T06:38:18.906Z,27
2017-03-27T06:39:19.110Z,27
2017-03-27T06:40:17.948Z,27
2017-03-27T06:41:18.952Z,27
2017-03-27T06:42:19.047Z,26.9
2017-03-27T06:43:19.142Z,26.9
2017-03-27T06:44:18.166Z,26.9
2017-03-27T06:45:19.415Z,26.9
2017-03-27T06:46:19.248Z,26.8
2017-03-27T06:47:18.221Z,26.8
2017-03-27T06:48:19.987Z,26.8
2017-03-27T06:49:19.442Z,26.8
2017-03-27T06:50:18.344Z,26.8
2017-03-27T06:51:19.668Z,26.8
2017-03-27T06:52:19.654Z,26.7
2017-03-27T06:53:18.654Z,26.7
2017-03-27T06:54:20.418Z,26.7
2017-03-27T06:55:19.749Z,26.7
2017-03-27T06:56:18.702Z,26.6
2017-03-27T06:57:20.031Z,26.6
2017-03-27T06:58:20.927Z,26.6
2017-03-27T06:59:18.980Z,26.6
2017-03-27T07:00:20.043Z,26.5
2017-03-27T07:01:20.245Z,26.5
2017-03-27T07:02:19.205Z,26.5
2017-03-27T07:03:20.437Z,26.5
2017-03-27T07:04:20.329Z,26.4
2017-03-27T07:05:19.250Z,26.4
2017-03-27T07:06:20.377Z,26.4
2017-03-27T07:07:20.251Z,26.4
2017-03-27T07:08:19.867Z,26.3
2017-03-27T07:09:19.858Z,26.3
2017-03-27T07:10:19.784Z,26.3
2017-03-27T07:11:20.963Z,26.2
2017-03-27T07:12:19.868Z,26.2
2017-03-27T07:13:19.936Z,26.1
2017-03-27T07:14:20.922Z,26.1
2017-03-27T07:15:20.064Z,26.1
2017-03-27T07:16:19.980Z,26.1
2017-03-27T07:17:21.053Z,26
2017-03-27T07:18:21.358Z,26
2017-03-27T07:19:21.462Z,25.9
2017-03-27T07:20:22.595Z,25.9
2017-03-27T07:21:20.719Z,25.9
2017-03-27T07:22:20.364Z,25.9
2017-03-27T07:23:21.388Z,25.8
2017-03-27T07:24:21.536Z,25.8
2017-03-27T07:25:21.233Z,25.8
2017-03-27T07:26:21.720Z,25.7
2017-03-27T07:27:21.825Z,25.7
2017-03-27T07:28:20.664Z,25.6
2017-03-27T07:29:21.641Z,25.6
2017-03-27T07:30:20.618Z,25.6
2017-03-27T07:31:22.303Z,25.6
2017-03-27T07:32:21.625Z,25.5
2017-03-27T07:33:20.975Z,25.5
2017-03-27T07:34:21.873Z,25.5
2017-03-27T07:35:21.446Z,25.4
2017-03-27T07:36:20.930Z,25.4
2017-03-27T07:37:22.083Z,25.4
2017-03-27T07:38:21.023Z,25.4
2017-03-27T07:39:22.340Z,25.4
2017-03-27T07:40:20.933Z,25.4
2017-03-27T07:41:22.146Z,25.4
2017-03-27T07:42:22.125Z,25.4
2017-03-27T07:43:23.215Z,25.4
2017-03-27T07:44:21.360Z,25.4
2017-03-27T07:45:22.652Z,25.5
2017-03-27T07:46:22.470Z,25.6
2017-03-27T07:47:22.436Z,25.6
2017-03-27T07:48:21.387Z,25.7
2017-03-27T07:49:22.531Z,25.7
2017-03-27T07:50:22.530Z,25.8
2017-03-27T07:51:23.404Z,25.8
2017-03-27T07:52:22.736Z,25.9
2017-03-27T07:53:23.014Z,25.9
2017-03-27T07:54:23.061Z,26
2017-03-27T07:55:21.844Z,26
2017-03-27T07:56:21.853Z,26
2017-03-27T07:57:25.671Z,26.1
2017-03-27T07:58:23.905Z,26.1
2017-03-27T07:59:23.534Z,26.1
2017-03-27T08:00:21.955Z,26.2
2017-03-27T08:01:23.731Z,26.2
2017-03-27T08:02:23.333Z,26.2
2017-03-27T08:03:22.550Z,26.2
2017-03-27T08:04:23.651Z,26.3
2017-03-27T08:05:23.422Z,26.3
2017-03-27T08:06:23.408Z,26.3
2017-03-27T08:07:23.721Z,26.3
2017-03-27T08:08:24.602Z,26.3
2017-03-27T08:09:24.969Z,26.3
2017-03-27T08:10:22.665Z,26.3
2017-03-27T08:12:25.502Z,26.2
2017-03-27T08:12:33.957Z,26.1
2017-03-27T08:13:34.964Z,26.1
2017-03-27T08:14:33.189Z,26.1
2017-03-27T08:15:32.779Z,26
2017-03-27T08:16:33.298Z,26
2017-03-27T08:17:33.958Z,26
2017-03-27T08:18:33.657Z,26
2017-03-27T08:19:33.216Z,26
2017-03-27T08:20:34.417Z,26
2017-03-27T08:21:34.300Z,26
2017-03-27T08:22:34.480Z,26
2017-03-27T08:23:34.531Z,26
2017-03-27T08:24:34.341Z,26
2017-03-27T08:25:33.412Z,26
2017-03-27T08:26:34.713Z,26
2017-03-27T08:27:34.806Z,26
2017-03-27T08:28:33.724Z,26
2017-03-27T08:29:34.757Z,26
2017-03-27T08:30:33.757Z,26.1
2017-03-27T08:31:33.758Z,26.1
2017-03-27T08:32:35.645Z,26.2
2017-03-27T08:33:34.237Z,26.2
2017-03-27T08:34:34.839Z,26.2
2017-03-27T08:35:35.694Z,26.3
2017-03-27T08:36:34.157Z,26.3
2017-03-27T08:37:35.122Z,26.4
2017-03-27T08:38:35.158Z,26.4
2017-03-27T08:39:33.957Z,26.5
2017-03-27T08:40:35.175Z,26.5
2017-03-27T08:41:35.882Z,26.6
2017-03-27T08:42:35.183Z,26.6
2017-03-27T08:43:34.224Z,26.6
2017-03-27T08:44:34.415Z,26.6
2017-03-27T08:45:34.926Z,26.6
2017-03-27T08:46:35.654Z,26.7
2017-03-27T08:47:35.670Z,26.7
2017-03-27T08:48:35.716Z,26.7
2017-03-27T08:49:34.564Z,26.7
2017-03-27T08:50:34.557Z,26.7
2017-03-27T08:51:36.053Z,26.8
2017-03-27T08:52:37.487Z,26.8
2017-03-27T08:53:35.911Z,26.8
2017-03-27T08:54:35.625Z,26.8
2017-03-27T08:55:35.099Z,26.8
2017-03-27T08:56:36.126Z,26.9
2017-03-27T08:57:35.003Z,26.9
2017-03-27T08:58:36.150Z,26.9
2017-03-27T08:59:36.188Z,26.9
2017-03-27T09:00:38.323Z,26.9
2017-03-27T09:01:35.634Z,27
2017-03-27T09:02:35.342Z,27
2017-03-27T09:03:36.542Z,27
2017-03-27T09:04:36.474Z,27
2017-03-27T09:05:36.962Z,27
2017-03-27T09:06:36.448Z,27.1
2017-03-27T09:07:36.711Z,27.1
2017-03-27T09:08:37.465Z,27.1
2017-03-27T09:09:36.554Z,27.1
2017-03-27T09:10:36.642Z,27.2
2017-03-27T09:11:37.571Z,27.2
2017-03-27T09:12:36.809Z,27.2
2017-03-27T09:13:37.049Z,27.2
2017-03-27T09:14:35.926Z,27.2
2017-03-27T09:15:35.916Z,27.2
2017-03-27T09:16:37.022Z,27.2
2017-03-27T09:17:41.824Z,27.2
2017-03-27T09:18:36.913Z,27.3
2017-03-27T09:19:37.258Z,27.3
2017-03-27T09:20:37.012Z,27.3
2017-03-27T09:21:36.122Z,27.3
2017-03-27T09:22:37.239Z,27.3
2017-03-27T09:23:36.240Z,27.3
2017-03-27T09:24:36.368Z,27.4
2017-03-27T09:25:38.142Z,27.4
2017-03-27T09:26:37.514Z,27.4
2017-03-27T09:27:37.459Z,27.4
2017-03-27T09:28:37.007Z,27.4
2017-03-27T09:29:37.554Z,27.4
2017-03-27T09:30:37.595Z,27.4
2017-03-27T09:31:37.617Z,27.5
2017-03-27T09:32:37.822Z,27.5
2017-03-27T09:33:36.788Z,27.5
2017-03-27T09:34:36.781Z,27.5
2017-03-27T09:35:36.775Z,27.5
2017-03-27T09:36:37.459Z,27.5
2017-03-27T09:37:38.116Z,27.5
2017-03-27T09:38:38.620Z,27.5
2017-03-27T09:39:36.959Z,27.5
2017-03-27T09:40:37.764Z,27.5
2017-03-27T09:41:38.209Z,27.6
2017-03-27T09:42:37.139Z,27.6
2017-03-27T09:43:38.478Z,27.6
2017-03-27T09:44:39.366Z,27.6
2017-03-27T09:45:37.223Z,27.6
2017-03-27T09:46:38.835Z,27.6
2017-03-27T09:47:38.004Z,27.7
2017-03-27T09:48:37.359Z,27.7
2017-03-27T09:49:37.555Z,27.7
2017-03-27T09:50:38.217Z,27.7
2017-03-27T09:51:38.848Z,27.7
2017-03-27T09:52:39.333Z,27.7
2017-03-27T09:53:38.686Z,27.8
2017-03-27T09:54:38.751Z,27.8
2017-03-27T09:55:37.976Z,27.8
2017-03-27T09:56:37.723Z,27.8
2017-03-27T09:57:37.953Z,27.8
2017-03-27T09:58:38.979Z,27.8
2017-03-27T09:59:39.016Z,27.8
2017-03-27T10:00:39.008Z,27.9
2017-03-27T10:01:38.317Z,27.9
2017-03-27T10:02:39.206Z,27.9
2017-03-27T10:03:39.897Z,27.9
2017-03-27T10:04:39.429Z,27.9
2017-03-27T10:05:39.886Z,27.9
2017-03-27T10:06:38.447Z,27.9
2017-03-27T10:07:38.642Z,27.9
2017-03-27T10:08:38.420Z,27.9
2017-03-27T10:09:39.427Z,27.9
2017-03-27T10:10:39.622Z,27.9
2017-03-27T10:11:40.601Z,27.9
2017-03-27T10:12:39.792Z,27.9
2017-03-27T10:13:38.866Z,27.9
2017-03-27T10:14:38.703Z,28
2017-03-27T10:15:38.686Z,27.9
2017-03-27T10:16:39.024Z,28
2017-03-27T10:17:39.594Z,28
2017-03-27T10:18:39.971Z,28
2017-03-27T10:19:41.557Z,28
2017-03-27T10:20:40.431Z,28
2017-03-27T10:21:41.538Z,28
2017-03-27T10:22:40.451Z,28
2017-03-27T10:23:40.390Z,28
2017-03-27T10:24:39.315Z,28
2017-03-27T10:25:39.427Z,28
2017-03-27T10:26:39.338Z,28
2017-03-27T10:27:39.325Z,28
2017-03-27T10:28:39.953Z,28
2017-03-27T10:29:40.115Z,28
2017-03-27T10:30:41.212Z,28
2017-03-27T10:31:40.720Z,28
2017-03-27T10:32:40.687Z,28.1
2017-03-27T10:33:39.578Z,28.1
2017-03-27T10:34:40.714Z,28.1
2017-03-27T10:35:39.654Z,28.1
2017-03-27T10:36:39.886Z,28.1
2017-03-27T10:37:40.890Z,28.1
2017-03-27T10:38:41.070Z,28.1
2017-03-27T10:39:40.944Z,28.1
2017-03-27T10:40:40.023Z,28.1
2017-03-27T10:41:39.897Z,28.1
2017-03-27T10:42:40.791Z,28.1
2017-03-27T10:43:39.923Z,28.1
2017-03-27T10:44:39.882Z,28.1
2017-03-27T10:45:40.999Z,28.1
2017-03-27T10:46:41.052Z,28.1
2017-03-27T10:47:40.252Z,28.1
2017-03-27T10:48:40.322Z,28.1
2017-03-27T10:49:41.149Z,28.1
2017-03-27T10:50:40.139Z,28.1
2017-03-27T10:51:40.170Z,28.1
2017-03-27T10:52:40.901Z,28.1
2017-03-27T10:53:40.240Z,28.1
2017-03-27T10:54:40.528Z,28.1
2017-03-27T10:55:41.933Z,28.1
2017-03-27T10:56:41.456Z,28.1
2017-03-27T10:57:40.532Z,28.1
2017-03-27T10:58:40.595Z,28.1
2017-03-27T10:59:40.502Z,28.1
2017-03-27T11:00:41.791Z,28.1
2017-03-27T11:01:40.577Z,28.1
2017-03-27T11:02:41.919Z,28.1
2017-03-27T11:03:42.052Z,28.1
2017-03-27T11:04:41.996Z,28.1
2017-03-27T11:05:42.088Z,28.1
2017-03-27T11:06:42.117Z,28.1
2017-03-27T11:07:43.259Z,28.1
2017-03-27T11:08:41.059Z,28.1
2017-03-27T11:09:41.087Z,28.1
2017-03-27T11:10:42.056Z,28.1
2017-03-27T11:11:41.053Z,28.1
2017-03-27T11:12:43.219Z,28.1
2017-03-27T11:13:41.247Z,28.1
2017-03-27T11:14:41.289Z,28.1
2017-03-27T11:15:42.360Z,28.1
2017-03-27T11:16:41.844Z,28.1
2017-03-27T11:17:41.461Z,28.1
2017-03-27T11:18:41.533Z,28
2017-03-27T11:19:41.575Z,28
2017-03-27T11:20:42.642Z,28
2017-03-27T11:21:43.170Z,28
2017-03-27T11:22:42.725Z,28
2017-03-27T11:23:43.031Z,28
2017-03-27T11:24:41.652Z,27.9
2017-03-27T11:25:41.773Z,27.9
2017-03-27T11:26:42.902Z,27.9
2017-03-27T11:27:43.240Z,27.9
2017-03-27T11:28:41.975Z,27.9
2017-03-27T11:29:43.246Z,27.9
2017-03-27T11:30:42.761Z,27.8
2017-03-27T11:31:42.028Z,27.8
2017-03-27T11:32:42.152Z,27.8
2017-03-27T11:33:42.187Z,27.8
2017-03-27T11:34:42.203Z,27.8
2017-03-27T11:35:42.996Z,27.8
2017-03-27T11:36:44.532Z,27.8
2017-03-27T11:37:42.855Z,27.8
2017-03-27T11:38:48.316Z,27.8
2017-03-27T11:39:42.440Z,27.8
2017-03-27T11:40:43.414Z,27.8
2017-03-27T11:41:43.816Z,27.9
2017-03-27T11:42:46.219Z,27.9
2017-03-27T11:43:42.875Z,27.9
2017-03-27T11:44:44.327Z,27.8
2017-03-27T11:45:45.531Z,27.8
2017-03-27T11:46:45.372Z,27.8
2017-03-27T11:47:46.012Z,27.8
2017-03-27T11:48:45.871Z,27.8
2017-03-27T11:49:44.692Z,27.8
2017-03-27T11:50:45.748Z,27.8
2017-03-27T11:51:50.454Z,27.8
2017-03-27T11:52:45.059Z,27.9
2017-03-27T11:53:44.858Z,27.9
2017-03-27T11:54:44.043Z,27.9
2017-03-27T11:55:43.143Z,27.9
2017-03-27T11:56:44.413Z,27.9
2017-03-27T11:57:45.083Z,27.9
2017-03-27T11:58:43.615Z,27.9
2017-03-27T11:59:44.833Z,27.9
2017-03-27T12:00:44.628Z,27.9
2017-03-27T12:01:44.495Z,27.9
2017-03-27T12:02:49.692Z,27.9
2017-03-27T12:03:45.051Z,27.9
2017-03-27T12:04:43.590Z,27.9
2017-03-27T12:05:45.035Z,27.9
2017-03-27T12:06:46.303Z,27.9
2017-03-27T12:07:44.944Z,27.9
2017-03-27T12:08:46.987Z,27.9
2017-03-27T12:09:45.849Z,28
2017-03-27T12:10:46.026Z,28
2017-03-27T12:11:44.431Z,28
2017-03-27T12:12:44.294Z,28
2017-03-27T12:13:45.273Z,28
2017-03-27T12:14:45.476Z,28
2017-03-27T12:15:45.713Z,28
2017-03-27T12:16:44.327Z,28
2017-03-27T12:17:45.669Z,28
2017-03-27T12:18:45.015Z,28
2017-03-27T12:19:45.626Z,28
2017-03-27T12:20:44.473Z,28
2017-03-27T12:21:49.630Z,28
2017-03-27T12:22:45.050Z,28.1
2017-03-27T12:23:45.964Z,28.1
2017-03-27T12:24:44.744Z,28.1
2017-03-27T12:25:45.835Z,28.1
2017-03-27T12:26:46.046Z,28.1
2017-03-27T12:27:46.058Z,28.1
2017-03-27T12:28:44.806Z,28.1
2017-03-27T12:29:46.323Z,28.1
2017-03-27T12:30:45.972Z,28.1
2017-03-27T12:31:45.124Z,28.1
2017-03-27T12:32:46.443Z,28.1
2017-03-27T12:33:45.458Z,28.1
2017-03-27T12:34:47.137Z,28.1
2017-03-27T12:35:47.821Z,28.1
2017-03-27T12:36:47.712Z,28.1
2017-03-27T12:37:47.163Z,28.1
2017-03-27T12:38:45.819Z,28.1
2017-03-27T12:39:46.906Z,28.1
2017-03-27T12:40:45.602Z,28.1
2017-03-27T12:41:46.395Z,28.1
2017-03-27T12:42:46.856Z,28.1
2017-03-27T12:43:47.019Z,28.1
2017-03-27T12:44:46.070Z,28.1
2017-03-27T12:45:45.900Z,28.1
2017-03-27T12:46:45.964Z,28.1
2017-03-27T12:47:47.465Z,28.1
2017-03-27T12:48:47.165Z,28.1
2017-03-27T12:49:47.429Z,28.1
2017-03-27T12:50:48.238Z,28.1
2017-03-27T12:51:47.270Z,28.1
2017-03-27T12:52:47.284Z,28.1
2017-03-27T12:53:47.931Z,28.1
2017-03-27T12:54:47.462Z,28.1
2017-03-27T12:55:47.515Z,28.1
2017-03-27T12:56:47.581Z,28.1
2017-03-27T12:57:46.842Z,28.1
2017-03-27T12:58:46.613Z,28.1
2017-03-27T12:59:46.528Z,28.1
2017-03-27T13:00:48.346Z,28.1
2017-03-27T13:01:47.869Z,28.1
2017-03-27T13:02:46.888Z,28.1
2017-03-27T13:03:46.814Z,28.1
2017-03-27T13:04:49.420Z,28.1
2017-03-27T13:05:48.053Z,28.1
2017-03-27T13:06:49.881Z,28.1
2017-03-27T13:07:46.978Z,28.1
2017-03-27T13:08:47.809Z,28.1
2017-03-27T13:09:48.261Z,28.1
2017-03-27T13:10:47.461Z,28.1
2017-03-27T13:12:47.083Z,28.1
2017-03-27T13:13:47.208Z,28.1
2017-03-27T13:14:48.192Z,28.1
2017-03-27T13:15:48.823Z,28.1
2017-03-27T13:16:48.247Z,28.1
2017-03-27T13:17:48.410Z,28.1
2017-03-27T13:18:48.403Z,28.1
2017-03-27T13:19:49.067Z,28.1
2017-03-27T13:20:48.422Z,28.1
2017-03-27T13:21:47.492Z,28.1
2017-03-27T13:22:48.656Z,28.1
2017-03-27T13:24:48.725Z,28.1
2017-03-27T13:25:48.737Z,28.1
2017-03-27T13:26:48.826Z,28.1
2017-03-27T13:27:48.889Z,28.1